createdAt,value
2023-07-23T00:00:52.053Z,99577.54
2023-07-23T00:03:38.550Z,99578.56
2023-07-23T00:06:05.499Z,99579.92
2023-07-23T00:08:31.886Z,99577.96
2023-07-23T00:10:58.944Z,99572.98
2023-07-23T00:13:25.672Z,99572.55
2023-07-23T00:15:52.156Z,99568.36
2023-07-23T00:18:18.733Z,99566.73
2023-07-23T00:20:46.251Z,99564.77
2023-07-23T00:23:15.733Z,99558.77
2023-07-23T00:25:42.817Z,99555.95
2023-07-23T00:28:11.748Z,99555.23
2023-07-23T00:30:38.437Z,99550.36
2023-07-23T00:33:07.327Z,99547.48
2023-07-23T00:35:33.978Z,99545.26
2023-07-23T00:38:00.652Z,99544.49
2023-07-23T00:40:29.944Z,99545.58
2023-07-23T00:42:56.514Z,99542.75
2023-07-23T00:45:24.685Z,99547.09
2023-07-23T00:47:53.687Z,99546.36
2023-07-23T00:50:23.029Z,99549.86
2023-07-23T00:52:49.576Z,99548.61
2023-07-23T00:55:18.501Z,99549.09
2023-07-23T00:57:45.342Z,99551.75
2023-07-23T01:00:13.098Z,99549.80
2023-07-23T01:02:45.017Z,99558.35
2023-07-23T01:05:12.144Z,99559.55
2023-07-23T01:07:40.316Z,99559.48
2023-07-23T01:27:33.506Z,99570.06
2023-07-23T01:30:01.480Z,99559.90
2023-07-23T01:32:32.421Z,99557.60
2023-07-23T01:35:12.443Z,99555.31
2023-07-23T01:37:40.624Z,99557.89
2023-07-23T01:40:09.217Z,99559.35
2023-07-23T01:42:37.126Z,99554.50
2023-07-23T01:45:05.764Z,99547.76
2023-07-23T01:47:33.911Z,99548.56
2023-07-23T01:50:04.328Z,99552.66
2023-07-23T01:52:32.197Z,99553.91
2023-07-23T01:55:00.023Z,99555.70
2023-07-23T01:57:30.902Z,99553.27
2023-07-23T01:59:58.777Z,99556.39
2023-07-23T02:02:26.721Z,99561.20
2023-07-23T02:04:54.682Z,99560.86
2023-07-23T02:07:22.904Z,99560.63
2023-07-23T02:09:53.683Z,99560.90
2023-07-23T02:12:21.655Z,99564.38
2023-07-23T02:14:53.991Z,99560.14
2023-07-23T02:17:24.511Z,99557.91
2023-07-23T02:19:52.756Z,99556.44
2023-07-23T02:22:20.682Z,99555.93
2023-07-23T02:24:48.631Z,99553.05
2023-07-23T02:27:24.038Z,99555.58
2023-07-23T02:29:52.074Z,99553.92
2023-07-23T02:32:20.030Z,99554.69
2023-07-23T02:34:50.329Z,99552.10
2023-07-23T02:37:20.918Z,99551.55
2023-07-23T02:39:48.779Z,99549.88
2023-07-23T02:42:16.829Z,99546.38
2023-07-23T02:44:44.827Z,99542.21
2023-07-23T02:47:12.866Z,99542.77
2023-07-23T02:49:40.982Z,99543.95
2023-07-23T02:52:08.958Z,99545.94
2023-07-23T02:54:37.047Z,99545.34
2023-07-23T02:57:07.487Z,99540.13
2023-07-23T02:59:35.396Z,99536.15
2023-07-23T03:02:08.413Z,99531.09
2023-07-23T03:04:36.609Z,99531.38
2023-07-23T03:07:05.128Z,99529.91
2023-07-23T03:09:35.995Z,99532.42
2023-07-23T03:12:05.597Z,99534.95
2023-07-23T03:14:35.521Z,99532.02
2023-07-23T03:17:03.650Z,99530.64
2023-07-23T03:19:33.849Z,99530.38
2023-07-23T03:22:02.684Z,99534.01
2023-07-23T03:24:32.570Z,99534.71
2023-07-23T03:27:00.801Z,99535.63
2023-07-23T03:29:33.761Z,99533.14
2023-07-23T03:32:02.197Z,99530.27
2023-07-23T03:34:31.757Z,99525.17
2023-07-23T03:36:59.700Z,99524.62
2023-07-23T03:39:27.523Z,99520.71
2023-07-23T03:41:57.939Z,99524.33
2023-07-23T03:44:25.798Z,99520.65
2023-07-23T03:47:16.395Z,99520.20
2023-07-23T03:49:45.731Z,99521.38
2023-07-23T03:52:14.207Z,99522.41
2023-07-23T03:54:44.684Z,99519.91
2023-07-23T03:57:12.673Z,99518.46
2023-07-23T04:00:05.440Z,99518.90
2023-07-23T04:02:43.020Z,99515.45
2023-07-23T04:05:20.951Z,99513.09
2023-07-23T04:07:49.139Z,99512.23
2023-07-23T04:10:19.810Z,99509.34
2023-07-23T04:12:48.727Z,99514.11
2023-07-23T04:15:19.636Z,99514.20
2023-07-23T04:17:49.912Z,99512.66
2023-07-23T04:20:19.152Z,99513.08
2023-07-23T04:22:49.444Z,99516.90
2023-07-23T04:25:18.173Z,99517.53
2023-07-23T04:27:51.312Z,99507.17
2023-07-23T04:30:22.384Z,99508.94
2023-07-23T04:32:52.957Z,99504.75
2023-07-23T04:35:23.532Z,99504.34
2023-07-23T04:37:51.337Z,99506.04
2023-07-23T04:40:19.573Z,99500.50
2023-07-23T04:42:49.947Z,99498.69
2023-07-23T04:45:17.930Z,99498.12
2023-07-23T04:47:46.214Z,99498.84
2023-07-23T04:50:14.061Z,99496.44
2023-07-23T04:52:41.954Z,99494.89
2023-07-23T04:55:09.923Z,99491.08
2023-07-23T04:57:37.849Z,99488.39
2023-07-23T05:00:09.183Z,99486.47
2023-07-23T05:02:37.261Z,99485.46
2023-07-23T05:05:08.539Z,99481.96
2023-07-23T05:07:36.529Z,99476.83
2023-07-23T05:10:04.704Z,99481.63
2023-07-23T05:12:32.761Z,99481.31
2023-07-23T05:15:15.989Z,99478.61
2023-07-23T05:17:43.849Z,99478.42
2023-07-23T05:20:11.918Z,99478.34
2023-07-23T05:22:41.344Z,99479.51
2023-07-23T05:25:14.078Z,99479.89
2023-07-23T05:27:44.949Z,99473.59
2023-07-23T05:30:12.898Z,99471.52
2023-07-23T05:32:48.697Z,99473.13
2023-07-23T05:35:16.909Z,99469.76
2023-07-23T05:37:46.844Z,99466.13
2023-07-23T05:40:14.702Z,99466.77
2023-07-23T05:42:47.368Z,99463.92
2023-07-23T05:45:15.294Z,99464.88
2023-07-23T05:47:43.110Z,99454.91
2023-07-23T05:50:11.714Z,99447.66
2023-07-23T05:52:44.336Z,99448.98
2023-07-23T05:55:17.251Z,99445.91
2023-07-23T05:57:45.102Z,99448.48
2023-07-23T06:00:15.804Z,99442.55
2023-07-23T06:02:43.930Z,99439.17
2023-07-23T06:05:14.380Z,99440.48
2023-07-23T06:07:45.014Z,99437.52
2023-07-23T06:10:13.108Z,99436.45
2023-07-23T06:12:40.918Z,99432.07
2023-07-23T06:15:10.888Z,99430.28
2023-07-23T06:17:38.933Z,99422.58
2023-07-23T06:20:07.950Z,99422.48
2023-07-23T06:22:39.080Z,99424.68
2023-07-23T06:25:08.108Z,99421.77
2023-07-23T06:27:41.082Z,99417.47
2023-07-23T06:30:22.488Z,99410.79
2023-07-23T06:32:59.662Z,99411.88
2023-07-23T06:35:27.735Z,99407.73
2023-07-23T06:37:57.853Z,99404.42
2023-07-23T06:40:25.700Z,99404.09
2023-07-23T06:42:56.232Z,99400.71
2023-07-23T06:45:24.210Z,99396.76
2023-07-23T06:47:52.065Z,99390.07
2023-07-23T06:50:22.530Z,99390.54
2023-07-23T06:52:52.596Z,99388.20
2023-07-23T06:55:23.319Z,99392.77
2023-07-23T06:57:54.170Z,99390.11
2023-07-23T07:00:22.146Z,99389.19
2023-07-23T07:02:50.213Z,99381.70
2023-07-23T07:05:20.395Z,99380.04
2023-07-23T07:07:48.705Z,99376.63
2023-07-23T07:10:18.890Z,99371.16
2023-07-23T07:12:49.000Z,99368.16
2023-07-23T07:15:19.056Z,99361.80
2023-07-23T07:17:51.863Z,99360.00
2023-07-23T07:20:20.002Z,99357.92
2023-07-23T07:22:50.205Z,99352.48
2023-07-23T07:25:18.240Z,99349.36
2023-07-23T07:27:48.894Z,99349.65
2023-07-23T07:30:19.261Z,99349.13
2023-07-23T07:32:47.439Z,99348.71
2023-07-23T07:35:15.323Z,99342.48
2023-07-23T07:37:43.398Z,99334.63
2023-07-23T07:40:17.243Z,99333.98
2023-07-23T07:42:47.269Z,99330.83
2023-07-23T07:45:17.634Z,99322.71
2023-07-23T07:47:45.673Z,99312.39
2023-07-23T07:50:13.547Z,99306.87
2023-07-23T07:52:41.741Z,99312.99
2023-07-23T07:55:09.871Z,99310.58
2023-07-23T07:57:38.272Z,99300.63
2023-07-23T08:00:08.774Z,99290.64
2023-07-23T08:02:41.018Z,99289.18
2023-07-23T08:05:12.361Z,99288.16
2023-07-23T08:07:44.633Z,99285.14
2023-07-23T08:10:15.661Z,99274.49
2023-07-23T08:12:44.524Z,99272.64
2023-07-23T08:15:15.183Z,99266.61
2023-07-23T08:17:43.947Z,99265.27
2023-07-23T08:20:15.868Z,99259.27
2023-07-23T08:22:44.068Z,99258.95
2023-07-23T08:25:14.217Z,99258.27
2023-07-23T08:27:44.402Z,99248.51
2023-07-23T08:30:15.208Z,99246.08
2023-07-23T08:32:47.434Z,99250.34
2023-07-23T08:35:15.654Z,99239.09
2023-07-23T08:37:43.772Z,99230.65
2023-07-23T08:40:12.782Z,99225.52
2023-07-23T08:42:56.035Z,99221.16
2023-07-23T08:45:45.091Z,99219.88
2023-07-23T08:48:20.944Z,99218.22
2023-07-23T08:50:51.101Z,99220.19
2023-07-23T08:53:19.792Z,99210.94
2023-07-23T08:55:48.188Z,99206.71
2023-07-23T08:58:18.831Z,99196.36
2023-07-23T09:00:48.600Z,99197.08
2023-07-23T09:03:21.303Z,99200.02
2023-07-23T09:05:49.674Z,99197.16
2023-07-23T09:08:20.078Z,99195.00
2023-07-23T09:10:48.292Z,99193.08
2023-07-23T09:13:16.295Z,99193.39
2023-07-23T09:15:54.366Z,99197.13
2023-07-23T09:18:22.160Z,99200.20
2023-07-23T09:20:50.870Z,99193.05
2023-07-23T09:23:19.089Z,99196.61
2023-07-23T09:25:48.991Z,99207.36
2023-07-23T09:28:26.253Z,99205.02
2023-07-23T09:30:58.021Z,99208.80
2023-07-23T09:33:36.679Z,99212.75
2023-07-23T09:36:06.312Z,99206.39
2023-07-23T09:38:37.020Z,99208.73
2023-07-23T09:41:05.912Z,99202.13
2023-07-23T09:43:35.696Z,99194.42
2023-07-23T09:46:05.731Z,99185.63
2023-07-23T09:48:33.819Z,99183.45
2023-07-23T09:51:01.875Z,99187.94
2023-07-23T09:53:30.980Z,99182.39
2023-07-23T09:56:00.600Z,99181.92
2023-07-23T09:58:30.598Z,99174.41
2023-07-23T10:00:59.194Z,99173.84
2023-07-23T10:03:28.184Z,99175.73
2023-07-23T10:05:56.321Z,99171.10
2023-07-23T10:08:25.003Z,99169.15
2023-07-23T10:10:55.107Z,99171.13
2023-07-23T10:13:27.683Z,99167.83
2023-07-23T10:15:55.820Z,99165.75
2023-07-23T10:18:27.808Z,99165.19
2023-07-23T10:20:59.523Z,99164.70
2023-07-23T10:23:29.742Z,99160.28
2023-07-23T10:26:21.330Z,99154.88
2023-07-23T10:28:56.533Z,99150.48
2023-07-23T10:31:25.675Z,99159.48
2023-07-23T10:33:54.008Z,99149.42
2023-07-23T10:36:23.994Z,99148.39
2023-07-23T10:39:19.167Z,99152.71
2023-07-23T10:41:56.908Z,99148.48
2023-07-23T10:44:28.687Z,99133.81
2023-07-23T10:47:20.503Z,99136.28
2023-07-23T10:50:15.162Z,99139.34
2023-07-23T10:52:49.219Z,99128.88
2023-07-23T10:55:35.887Z,99125.05
2023-07-23T10:58:11.589Z,99110.23
2023-07-23T11:00:47.837Z,99110.08
2023-07-23T11:03:18.486Z,99106.94
2023-07-23T11:05:50.588Z,99101.96
2023-07-23T11:08:27.993Z,99099.79
2023-07-23T11:11:00.709Z,99103.58
2023-07-23T11:13:33.394Z,99101.52
2023-07-23T11:16:06.505Z,99097.11
2023-07-23T11:18:35.680Z,99096.34
2023-07-23T11:21:06.988Z,99093.36
2023-07-23T11:23:36.884Z,99089.62
2023-07-23T11:26:04.931Z,99082.41
2023-07-23T11:28:35.992Z,99082.79
2023-07-23T11:31:04.965Z,99085.55
2023-07-23T11:33:34.696Z,99079.75
2023-07-23T11:36:02.927Z,99076.06
2023-07-23T11:38:36.247Z,99083.54
2023-07-23T11:41:04.747Z,99080.83
2023-07-23T11:43:35.225Z,99082.71
2023-07-23T11:46:06.023Z,99081.09
2023-07-23T11:48:37.404Z,99082.40
2023-07-23T11:51:07.864Z,99075.86
2023-07-23T11:53:39.000Z,99068.54
2023-07-23T11:56:11.070Z,99069.96
2023-07-23T11:58:39.603Z,99066.64
2023-07-23T12:01:11.263Z,99063.30
2023-07-23T12:03:44.804Z,99057.02
2023-07-23T12:06:14.439Z,99053.15
2023-07-23T12:08:49.117Z,99056.90
2023-07-23T12:11:19.839Z,99057.86
2023-07-23T12:13:59.011Z,99062.55
2023-07-23T12:16:33.003Z,99060.17
2023-07-23T12:19:14.928Z,99059.89
2023-07-23T12:21:45.294Z,99057.70
2023-07-23T12:24:23.619Z,99054.14
2023-07-23T12:26:56.473Z,99053.28
2023-07-23T12:29:30.965Z,99051.05
2023-07-23T12:32:15.574Z,99049.52
2023-07-23T12:34:45.835Z,99047.11
2023-07-23T12:37:17.368Z,99045.04
2023-07-23T12:39:48.182Z,99045.76
2023-07-23T12:42:19.183Z,99039.27
2023-07-23T12:44:47.222Z,99038.44
2023-07-23T12:47:17.574Z,99036.02
2023-07-23T12:49:45.393Z,99034.80
2023-07-23T12:52:16.167Z,99033.89
2023-07-23T12:55:22.834Z,99033.68
2023-07-23T12:57:50.749Z,99035.27
2023-07-23T13:00:22.298Z,99031.77
2023-07-23T13:02:50.367Z,99032.32
2023-07-23T13:05:23.481Z,99031.61
2023-07-23T13:07:51.268Z,99025.55
2023-07-23T13:44:02.464Z,98986.85
2023-07-23T13:46:29.986Z,98989.10
2023-07-23T13:48:59.681Z,98982.47
2023-07-23T13:51:26.150Z,98982.06
2023-07-23T13:53:54.878Z,98980.91
2023-07-23T13:56:21.386Z,98969.94
2023-07-23T13:58:48.244Z,98964.91
2023-07-23T14:01:14.880Z,98960.77
2023-07-23T14:03:50.089Z,98961.96
2023-07-23T14:06:17.492Z,98967.04
2023-07-23T14:08:46.092Z,98965.65
2023-07-23T14:11:12.602Z,98963.98
2023-07-23T14:13:39.116Z,98960.67
2023-07-23T14:16:06.149Z,98958.76
2023-07-23T14:18:32.655Z,98954.37
2023-07-23T14:21:03.014Z,98949.39
2023-07-23T14:23:36.331Z,98954.02
2023-07-23T14:26:02.940Z,98952.05
2023-07-23T14:28:29.368Z,98954.62
2023-07-23T14:30:55.844Z,98949.82
2023-07-23T14:33:22.466Z,98945.67
2023-07-23T14:35:50.947Z,98945.60
2023-07-23T14:38:20.125Z,98942.34
2023-07-23T14:40:49.788Z,98944.36
2023-07-23T14:43:16.184Z,98938.85
2023-07-23T14:45:45.729Z,98941.83
2023-07-23T14:48:15.529Z,98938.23
2023-07-23T14:50:42.089Z,98936.66
2023-07-23T14:53:10.158Z,98935.73
2023-07-23T14:55:39.205Z,98935.66
2023-07-23T14:58:05.742Z,98931.05
2023-07-23T15:00:32.505Z,98925.41
2023-07-23T15:02:59.083Z,98922.03
2023-07-23T15:05:28.408Z,98925.09
2023-07-23T15:07:57.325Z,98927.33
2023-07-23T15:10:23.855Z,98923.17
2023-07-23T15:12:50.566Z,98915.20
2023-07-23T15:15:17.912Z,98914.28
2023-07-23T15:17:48.093Z,98912.09
2023-07-23T15:20:15.012Z,98910.79
2023-07-23T15:22:41.732Z,98907.31
2023-07-23T15:25:09.161Z,98909.93
2023-07-23T15:27:38.153Z,98905.48
2023-07-23T15:30:07.706Z,98903.46
2023-07-23T15:32:34.251Z,98896.06
2023-07-23T15:35:01.155Z,98899.52
2023-07-23T15:37:28.154Z,98895.36
2023-07-23T15:39:56.887Z,98892.05
2023-07-23T15:42:23.813Z,98888.69
2023-07-23T15:44:50.542Z,98885.27
2023-07-23T15:47:17.241Z,98886.50
2023-07-23T15:49:43.764Z,98876.67
2023-07-23T15:52:15.008Z,98876.87
2023-07-23T15:54:41.896Z,98877.73
2023-07-23T15:57:11.393Z,98870.95
2023-07-23T15:59:37.945Z,98868.13
2023-07-23T16:02:07.516Z,98868.27
2023-07-23T16:04:38.889Z,98867.59
2023-07-23T16:07:05.484Z,98870.05
2023-07-23T16:09:34.511Z,98867.55
2023-07-23T16:12:03.276Z,98870.70
2023-07-23T16:14:30.330Z,98868.63
2023-07-23T16:16:56.888Z,98861.16
2023-07-23T16:19:23.305Z,98858.30
2023-07-23T16:21:52.105Z,98863.14
2023-07-23T16:24:18.669Z,98863.86
2023-07-23T16:26:45.175Z,98864.39
2023-07-23T16:29:16.714Z,98861.55
2023-07-23T16:31:45.856Z,98857.59
2023-07-23T16:34:12.740Z,98859.00
2023-07-23T16:36:48.945Z,98855.69
2023-07-23T16:39:18.122Z,98854.00
2023-07-23T16:41:45.306Z,98849.57
2023-07-23T16:44:13.817Z,98849.79
2023-07-23T16:46:43.763Z,98845.80
2023-07-23T16:49:12.836Z,98847.94
2023-07-23T16:51:41.636Z,98846.73
2023-07-23T16:54:12.460Z,98847.71
2023-07-23T16:56:39.313Z,98844.83
2023-07-23T16:59:08.177Z,98840.23
2023-07-23T17:01:37.574Z,98840.77
2023-07-23T17:04:04.025Z,98842.21
2023-07-23T17:06:30.900Z,98836.56
2023-07-23T17:08:58.093Z,98838.60
2023-07-23T17:11:25.149Z,98834.98
2023-07-23T17:13:55.056Z,98832.61
2023-07-23T17:16:23.891Z,98833.88
2023-07-23T17:18:50.416Z,98837.34
2023-07-23T17:21:16.970Z,98835.19
2023-07-23T17:23:43.401Z,98834.94
2023-07-23T17:26:10.219Z,98832.58
2023-07-23T17:28:36.666Z,98829.00
2023-07-23T17:31:03.762Z,98832.77
2023-07-23T17:33:32.954Z,98832.13
2023-07-23T17:35:59.643Z,98830.14
2023-07-23T17:38:26.202Z,98828.30
2023-07-23T17:40:52.746Z,98826.86
2023-07-23T17:43:21.492Z,98826.28
2023-07-23T17:45:48.379Z,98826.62
2023-07-23T17:48:17.683Z,98825.44
2023-07-23T17:50:46.475Z,98822.92
2023-07-23T17:53:18.232Z,98820.39
2023-07-23T17:55:47.980Z,98818.98
2023-07-23T17:58:20.159Z,98815.98
2023-07-23T18:00:49.018Z,98818.20
2023-07-23T18:03:19.138Z,98812.86
2023-07-23T18:05:56.069Z,98813.02
2023-07-23T18:08:22.918Z,98813.52
2023-07-23T18:10:51.697Z,98814.24
2023-07-23T18:13:21.671Z,98811.76
2023-07-23T18:15:48.273Z,98806.27
2023-07-23T18:18:14.985Z,98807.45
2023-07-23T18:20:41.836Z,98802.64
2023-07-23T18:23:08.358Z,98802.30
2023-07-23T18:25:44.475Z,98799.80
2023-07-23T18:28:17.508Z,98801.89
2023-07-23T18:30:44.103Z,98801.14
2023-07-23T18:33:13.672Z,98802.07
2023-07-23T18:35:40.391Z,98803.39
2023-07-23T18:38:09.251Z,98799.50
2023-07-23T18:40:35.848Z,98801.34
2023-07-23T18:43:02.528Z,98805.75
2023-07-23T18:45:28.992Z,98805.98
2023-07-23T18:47:58.213Z,98805.56
2023-07-23T18:50:27.144Z,98806.48
2023-07-23T18:52:55.988Z,98803.88
2023-07-23T18:55:22.395Z,98804.30
2023-07-23T18:57:51.158Z,98802.58
2023-07-23T19:00:17.588Z,98802.90
2023-07-23T19:02:44.259Z,98798.44
2023-07-23T19:05:10.782Z,98798.67
2023-07-23T19:07:37.578Z,98800.23
2023-07-23T19:10:04.836Z,98797.77
2023-07-23T19:12:31.330Z,98804.79
2023-07-23T19:14:57.958Z,98803.55
2023-07-23T19:17:24.647Z,98803.01
2023-07-23T19:19:53.884Z,98802.67
2023-07-23T19:22:22.999Z,98800.02
2023-07-23T19:24:49.998Z,98804.97
2023-07-23T19:27:16.537Z,98803.77
2023-07-23T19:29:43.284Z,98804.28
2023-07-23T19:32:11.100Z,98802.21
2023-07-23T19:34:40.606Z,98805.14
2023-07-23T19:37:07.160Z,98807.88
2023-07-23T19:39:36.333Z,98808.59
2023-07-23T19:42:02.871Z,98812.14
2023-07-23T19:44:29.468Z,98811.87
2023-07-23T19:46:55.892Z,98806.13
2023-07-23T19:49:26.707Z,98801.98
2023-07-23T19:51:53.207Z,98802.41
2023-07-23T19:54:20.127Z,98805.98
2023-07-23T19:56:46.797Z,98801.42
2023-07-23T19:59:15.718Z,98795.83
2023-07-23T20:01:45.666Z,98797.83
2023-07-23T20:04:15.385Z,98802.18
2023-07-23T20:06:41.887Z,98805.42
2023-07-23T20:09:08.427Z,98815.17
2023-07-23T20:11:37.652Z,98810.58
2023-07-23T20:14:06.700Z,98806.06
2023-07-23T20:16:33.952Z,98804.84
2023-07-23T20:19:00.911Z,98807.43
2023-07-23T20:21:42.353Z,98804.09
2023-07-23T20:24:15.723Z,98809.48
2023-07-23T20:26:45.595Z,98813.98
2023-07-23T20:29:20.758Z,98813.30
2023-07-23T20:31:48.393Z,98806.30
2023-07-23T20:34:15.218Z,98814.23
2023-07-23T20:36:44.650Z,98816.54
2023-07-23T20:39:11.617Z,98826.93
2023-07-23T20:41:38.916Z,98832.64
2023-07-23T20:44:07.711Z,98838.40
2023-07-23T20:46:34.711Z,98842.44
2023-07-23T20:49:01.426Z,98844.92
2023-07-23T20:51:28.286Z,98851.02
2023-07-23T20:53:54.758Z,98848.58
2023-07-23T20:56:22.367Z,98861.05
2023-07-23T20:58:49.111Z,98866.11
2023-07-23T21:01:18.171Z,98865.39
2023-07-23T21:03:50.276Z,98868.66
2023-07-23T21:06:26.446Z,98866.56
2023-07-23T21:08:53.068Z,98871.55
2023-07-23T21:11:19.535Z,98870.67
2023-07-23T21:13:48.560Z,98871.15
2023-07-23T21:16:15.060Z,98873.03
2023-07-23T21:18:41.532Z,98869.98
2023-07-23T21:21:08.556Z,98873.05
2023-07-23T21:23:35.044Z,98867.20
2023-07-23T21:26:06.036Z,98871.48
2023-07-23T21:28:35.390Z,98873.30
2023-07-23T21:31:02.064Z,98870.90
2023-07-23T21:33:28.539Z,98869.02
2023-07-23T21:35:58.348Z,98867.41
2023-07-23T21:38:24.970Z,98866.11
2023-07-23T21:40:57.346Z,98864.08
2023-07-23T21:43:30.927Z,98872.37
2023-07-23T21:45:58.059Z,98874.91
2023-07-23T21:48:24.783Z,98866.60
2023-07-23T21:50:51.514Z,98867.98
2023-07-23T21:53:18.545Z,98870.61
2023-07-23T21:55:45.135Z,98869.32
2023-07-23T21:58:14.186Z,98860.96
2023-07-23T22:00:41.426Z,98851.05
2023-07-23T22:03:08.267Z,98856.96
2023-07-23T22:05:36.191Z,98852.38
2023-07-23T22:08:05.228Z,98843.38
2023-07-23T22:10:31.645Z,98848.67
2023-07-23T22:12:58.171Z,98861.82
2023-07-23T22:15:24.934Z,98864.56
2023-07-23T22:17:51.956Z,98869.58
2023-07-23T22:20:21.178Z,98866.30
2023-07-23T22:22:47.634Z,98865.13
2023-07-23T22:25:14.391Z,98863.85
2023-07-23T22:27:40.868Z,98852.02
2023-07-23T22:30:27.646Z,98852.08
2023-07-23T22:32:59.054Z,98854.11
2023-07-23T22:35:26.054Z,98858.39
2023-07-23T22:37:55.240Z,98863.29
2023-07-23T22:40:21.930Z,98869.54
2023-07-23T22:43:00.913Z,98867.24
2023-07-23T22:45:30.143Z,98868.90
2023-07-23T22:47:56.613Z,98869.41
2023-07-23T22:50:26.050Z,98871.98
2023-07-23T22:52:52.854Z,98869.07
2023-07-23T22:55:19.412Z,98866.77
2023-07-23T22:57:50.719Z,98862.66
2023-07-23T23:00:19.693Z,98860.89
2023-07-23T23:02:46.354Z,98864.46
2023-07-23T23:05:16.495Z,98870.91
2023-07-23T23:07:45.523Z,98875.54
2023-07-23T23:10:14.630Z,98883.01
2023-07-23T23:12:41.068Z,98885.95
2023-07-23T23:15:09.185Z,98895.08
2023-07-23T23:17:38.376Z,98894.41
2023-07-23T23:20:07.740Z,98901.33
2023-07-23T23:22:34.204Z,98901.63
2023-07-23T23:25:00.884Z,98901.64
2023-07-23T23:27:33.658Z,98903.08
2023-07-23T23:30:00.211Z,98905.50
2023-07-23T23:32:30.466Z,98909.35
2023-07-23T23:34:57.046Z,98914.80
2023-07-23T23:37:23.616Z,98915.71
2023-07-23T23:39:50.310Z,98912.81
2023-07-23T23:42:17.230Z,98914.75
2023-07-23T23:44:43.587Z,98911.34
2023-07-23T23:47:12.379Z,98909.25
2023-07-23T23:49:42.876Z,98909.40
2023-07-23T23:52:11.846Z,98910.13
2023-07-23T23:54:40.823Z,98907.14
2023-07-23T23:57:07.310Z,98907.66
2023-07-23T23:59:36.209Z,98908.92
